Time;durP1;ratioP1;P1;durP2;ratioP2;P2;SDS_P1;SDS_P2;PMS_P1;PMS_P2;Temp;Humidity;BMP_temperature;BMP_pressure;BME280_temperature;BME280_humidity;BME280_pressure;Samples;Min_cycle;Max_cycle;Signal;HPM_P1;HPM_P2
2021/03/20 00:01:19;;;;;;;55.28;34.00;;;128.00;2252.80;;;;;;4956591;29;20031;-79
2021/03/20 00:03:46;;;;;;;57.78;35.58;;;128.00;2252.80;;;;;;4957756;29;20095;-80
2021/03/20 00:06:14;;;;;;;62.17;35.92;;;128.00;2252.80;;;;;;4957091;29;20038;-79
2021/03/20 00:08:42;;;;;;;62.58;36.58;;;128.00;2252.80;;;;;;4957478;29;20030;-79
2021/03/20 00:11:09;;;;;;;54.67;32.72;;;128.10;2252.80;;;;;;4958177;29;20023;-79
2021/03/20 00:13:36;;;;;;;69.57;39.85;;;128.10;2252.80;;;;;;4958680;29;20519;-79
2021/03/20 00:16:03;;;;;;;40.58;26.08;;;128.10;2252.80;;;;;;4958443;29;20028;-79
2021/03/20 00:18:30;;;;;;;52.90;32.28;;;103.30;2227.20;;;;;;4958590;29;20389;-79
2021/03/20 00:20:57;;;;;;;77.32;42.47;;;128.30;2252.80;;;;;;4958083;29;20056;-80
2021/03/20 00:23:23;;;;;;;47.75;29.77;;;103.20;2227.20;;;;;;4932684;29;20023;-79
2021/03/20 00:25:51;;;;;;;55.85;36.00;;;103.10;2227.20;;;;;;4954050;29;20032;-79
2021/03/20 00:28:23;;;;;;;121.63;61.83;;;103.10;2227.20;;;;;;4937090;29;20477;-79
2021/03/20 00:30:57;;;;;;;160.77;82.18;;;103.10;2227.20;;;;;;4936238;29;20067;-80
2021/03/20 00:33:24;;;;;;;91.78;54.35;;;103.20;2227.20;;;;;;4936544;29;20035;-79
2021/03/20 00:35:51;;;;;;;89.10;51.38;;;103.20;2227.20;;;;;;4944541;28;20106;-79
2021/03/20 00:38:19;;;;;;;70.82;45.35;;;103.20;2227.20;;;;;;4956142;29;20041;-79
2021/03/20 00:40:46;;;;;;;69.03;41.25;;;103.20;2227.20;;;;;;4955597;29;20035;-79
2021/03/20 00:43:12;;;;;;;73.38;44.15;;;103.10;2227.20;;;;;;4955066;29;20028;-82
2021/03/20 00:45:38;;;;;;;63.50;39.70;;;103.20;2227.20;;;;;;4940737;29;20051;-80
2021/03/20 00:48:12;;;;;;;52.38;34.08;;;103.20;2227.20;;;;;;4955482;29;20038;-81
2021/03/20 00:50:39;;;;;;;70.68;43.90;;;103.10;2227.20;;;;;;4952844;29;20034;-80
2021/03/20 00:53:06;;;;;;;70.68;44.55;;;103.20;2227.20;;;;;;4950506;29;20062;-78
2021/03/20 00:55:33;;;;;;;53.50;34.03;;;102.60;2227.20;;;;;;4953262;29;20083;-79
2021/03/20 00:57:59;;;;;;;51.53;35.38;;;128.30;2252.80;;;;;;4951525;29;20038;-80
2021/03/20 01:00:27;;;;;;;52.67;33.55;;;103.00;2227.20;;;;;;4951815;29;20051;-79
2021/03/20 01:02:55;;;;;;;47.50;31.35;;;103.10;2227.20;;;;;;4952424;29;20083;-79
2021/03/20 01:05:22;;;;;;;46.88;29.98;;;103.00;2227.20;;;;;;4952107;29;20028;-80
2021/03/20 01:07:51;;;;;;;37.65;26.60;;;103.10;2227.20;;;;;;4951924;29;20024;-80
2021/03/20 01:10:21;;;;;;;38.55;27.80;;;103.10;2227.20;;;;;;4951411;29;20034;-80
2021/03/20 01:12:47;;;;;;;42.55;27.63;;;103.10;2227.20;;;;;;4955910;29;20019;-79
2021/03/20 01:15:17;;;;;;;42.40;28.25;;;103.20;2227.20;;;;;;4954590;29;20020;-79
2021/03/20 01:17:45;;;;;;;38.35;26.02;;;103.20;2227.20;;;;;;4955748;29;20043;-79
2021/03/20 01:20:13;;;;;;;41.65;28.20;;;103.20;2227.20;;;;;;4956151;29;20055;-79
2021/03/20 01:22:41;;;;;;;38.50;26.25;;;103.20;2227.20;;;;;;4956886;29;20062;-79
2021/03/20 01:25:11;;;;;;;43.10;27.05;;;103.30;2227.20;;;;;;4956939;29;20023;-79
2021/03/20 01:27:39;;;;;;;41.08;27.98;;;103.20;2227.20;;;;;;4941359;29;20035;-80
2021/03/20 01:30:16;;;;;;;43.65;30.08;;;128.00;2252.80;;;;;;4973206;29;20035;-79
2021/03/20 01:32:43;;;;;;;35.20;23.25;;;103.30;2227.20;;;;;;4957260;29;20051;-79
2021/03/20 01:35:10;;;;;;;28.48;21.15;;;103.30;2227.20;;;;;;4941279;29;20057;-79
2021/03/20 01:37:37;;;;;;;30.33;21.88;;;103.20;2227.20;;;;;;4973267;29;20023;-79
2021/03/20 01:40:05;;;;;;;34.63;22.98;;;103.10;2227.20;;;;;;4956407;29;20095;-80
2021/03/20 01:42:32;;;;;;;35.67;23.45;;;103.10;2227.20;;;;;;4955161;29;20031;-80
2021/03/20 01:45:19;;;;;;;36.88;24.48;;;103.00;2227.20;;;;;;4952812;29;20107;-80
2021/03/20 01:48:09;;;;;;;31.48;21.48;;;103.00;2227.20;;;;;;4954080;29;20027;-79
2021/03/20 01:50:55;;;;;;;36.25;24.05;;;103.00;2227.20;;;;;;4954075;29;20024;-80
2021/03/20 01:53:46;;;;;;;31.52;21.17;;;103.00;2227.20;;;;;;4965009;28;20058;-80
2021/03/20 01:56:25;;;;;;;26.88;20.05;;;103.00;2227.20;;;;;;4973982;28;20095;-79
2021/03/20 01:58:53;;;;;;;27.08;19.33;;;103.00;2227.20;;;;;;4957782;28;20054;-79
2021/03/20 02:01:28;;;;;;;28.75;18.95;;;103.00;2227.20;;;;;;4975628;28;20073;-80
2021/03/20 02:03:56;;;;;;;29.02;19.35;;;103.00;2227.20;;;;;;4958844;28;20038;-80
2021/03/20 02:06:24;;;;;;;32.80;21.77;;;103.00;2227.20;;;;;;4972648;28;20058;-80
2021/03/20 02:08:52;;;;;;;37.85;26.35;;;103.00;2227.20;;;;;;4958037;28;20043;-79
2021/03/20 02:11:32;;;;;;;67.20;41.08;;;103.10;2227.20;;;;;;4975127;28;20054;-79
2021/03/20 02:14:37;;;;;;;99.90;59.33;;;103.10;2227.20;;;;;;4989945;28;20035;-80
2021/03/20 02:17:21;;;;;;;65.20;41.17;;;103.10;2227.20;;;;;;4974014;28;20440;-79
2021/03/20 02:20:20;;;;;;;58.65;36.75;;;103.00;2227.20;;;;;;4973251;28;20042;-79
2021/03/20 02:23:07;;;;;;;74.43;45.38;;;102.90;2227.20;;;;;;4973199;28;20030;-79
2021/03/20 02:25:45;;;;;;;52.28;34.17;;;103.00;2227.20;;;;;;4971835;28;20031;-79
2021/03/20 02:28:38;;;;;;;71.63;44.45;;;103.00;2227.20;;;;;;4971591;28;20035;-80
2021/03/20 02:31:29;;;;;;;63.38;41.40;;;103.00;2227.20;;;;;;4971956;28;20038;-80
2021/03/20 02:34:23;;;;;;;54.63;35.05;;;103.10;2227.20;;;;;;4990134;28;20049;-80
2021/03/20 02:37:16;;;;;;;48.27;31.97;;;103.00;2227.20;;;;;;4972707;28;20027;-79
2021/03/20 02:40:17;;;;;;;56.63;35.67;;;103.00;2227.20;;;;;;4973513;28;20269;-79
2021/03/20 02:43:05;;;;;;;62.25;38.78;;;103.00;2227.20;;;;;;4980950;28;20035;-79
2021/03/20 02:45:38;;;;;;;73.20;41.70;;;103.10;2227.20;;;;;;4973664;28;20027;-80
2021/03/20 02:48:29;;;;;;;44.83;29.38;;;103.20;2227.20;;;;;;4975360;28;20105;-79
2021/03/20 02:51:10;;;;;;;43.25;27.10;;;103.00;2227.20;;;;;;4975305;28;20038;-79
2021/03/20 02:54:02;;;;;;;37.67;26.10;;;102.70;2227.20;;;;;;4972138;28;20055;-80
2021/03/20 02:56:48;;;;;;;45.20;29.05;;;102.90;2227.20;;;;;;4956118;29;20015;-79
2021/03/20 02:59:15;;;;;;;50.70;33.28;;;103.00;2227.20;;;;;;4955206;29;20045;-80
2021/03/20 03:01:46;;;;;;;53.35;34.47;;;102.90;2227.20;;;;;;4956021;29;20027;-79
2021/03/20 03:04:15;;;;;;;52.08;33.88;;;103.00;2227.20;;;;;;4956059;29;20425;-80
2021/03/20 03:06:46;;;;;;;61.88;39.10;;;103.00;2227.20;;;;;;4959257;29;20024;-79
2021/03/20 03:09:33;;;;;;;66.07;40.00;;;103.00;2227.20;;;;;;4976529;29;20017;-79
2021/03/20 03:12:06;;;;;;;65.60;38.33;;;102.90;2227.20;;;;;;4959122;29;20293;-79
2021/03/20 03:14:48;;;;;;;54.75;33.70;;;102.90;2227.20;;;;;;4957615;29;20027;-79
2021/03/20 03:17:17;;;;;;;37.38;26.35;;;103.00;2227.20;;;;;;4975796;29;20027;-80
2021/03/20 03:20:00;;;;;;;43.75;27.33;;;102.90;2227.20;;;;;;4957333;29;20035;-81
2021/03/20 03:22:39;;;;;;;35.70;24.00;;;102.90;2227.20;;;;;;4956354;29;20114;-79
2021/03/20 03:25:11;;;;;;;49.15;32.28;;;102.80;2227.20;;;;;;4956448;29;20047;-79
2021/03/20 03:27:41;;;;;;;47.03;32.05;;;102.70;2227.20;;;;;;4955780;29;20086;-80
2021/03/20 03:30:11;;;;;;;44.28;29.98;;;102.70;2227.20;;;;;;4956152;29;20062;-80
2021/03/20 03:32:41;;;;;;;55.55;33.40;;;102.80;2227.20;;;;;;4957864;29;20032;-79
2021/03/20 03:35:25;;;;;;;61.28;36.88;;;102.80;2227.20;;;;;;4957494;29;20023;-79
2021/03/20 03:38:09;;;;;;;;;;;102.90;2227.20;;;;;;4957676;29;20031;-80
2021/03/20 03:40:50;;;;;;;58.47;35.85;;;102.90;2227.20;;;;;;4957117;29;19910;-80
2021/03/20 03:43:19;;;;;;;56.92;35.50;;;102.70;2227.20;;;;;;4957809;29;20109;-80
2021/03/20 03:45:47;;;;;;;92.05;48.90;;;102.70;2227.20;;;;;;4957374;29;20030;-79
2021/03/20 03:48:15;;;;;;;69.25;40.92;;;102.70;2227.20;;;;;;4957542;29;20126;-80
2021/03/20 03:50:43;;;;;;;55.60;38.03;;;102.50;2227.20;;;;;;4941584;29;20071;-79
2021/03/20 03:53:11;;;;;;;58.95;41.10;;;102.50;2227.20;;;;;;4952379;29;20044;-80
2021/03/20 03:55:38;;;;;;;57.17;39.78;;;102.50;2227.20;;;;;;4953035;29;20027;-79
2021/03/20 03:58:13;;;;;;;61.08;38.72;;;102.50;2227.20;;;;;;4968766;29;20023;-80
2021/03/20 04:00:50;;;;;;;79.10;44.92;;;102.60;2227.20;;;;;;4952297;29;20390;-79
2021/03/20 04:03:44;;;;;;;60.17;37.95;;;102.50;2227.20;;;;;;4952603;29;20024;-80
2021/03/20 04:06:33;;;;;;;47.97;31.75;;;102.50;2227.20;;;;;;4951551;29;20028;-79
2021/03/20 04:09:35;;;;;;;46.33;31.02;;;102.50;2227.20;;;;;;4944832;29;20048;-79
2021/03/20 04:12:22;;;;;;;45.67;30.33;;;102.50;2227.20;;;;;;4952548;29;20028;-79
2021/03/20 04:15:04;;;;;;;53.17;32.40;;;102.60;2227.20;;;;;;4953533;29;20055;-79
2021/03/20 04:18:00;;;;;;;58.40;34.42;;;102.50;2227.20;;;;;;4952402;29;20054;-79
2021/03/20 04:20:45;;;;;;;58.58;38.45;;;102.50;2227.20;;;;;;4954955;29;20034;-80
2021/03/20 04:23:29;;;;;;;67.85;39.75;;;102.50;2227.20;;;;;;4955149;29;20035;-79
2021/03/20 04:26:12;;;;;;;61.85;39.42;;;102.40;2227.20;;;;;;4954500;29;20039;-79
2021/03/20 04:28:48;;;;;;;;;;;102.40;2227.20;;;;;;4954273;29;20099;-79
2021/03/20 04:31:26;;;;;;;60.83;35.35;;;102.40;2227.20;;;;;;4953838;29;19934;-80
2021/03/20 04:34:19;;;;;;;64.15;38.88;;;77.70;2227.20;;;;;;4952870;29;20031;-80
2021/03/20 04:36:51;;;;;;;54.38;34.15;;;102.40;2227.20;;;;;;4951306;29;20063;-80
2021/03/20 04:39:20;;;;;;;60.63;36.60;;;102.40;2227.20;;;;;;4951663;29;20028;-79
2021/03/20 04:41:50;;;;;;;58.20;37.45;;;102.50;2227.20;;;;;;4951684;29;20482;-79
2021/03/20 04:44:17;;;;;;;68.40;40.95;;;102.50;2227.20;;;;;;4951543;29;20031;-80
2021/03/20 04:46:44;;;;;;;62.45;39.33;;;77.60;2227.20;;;;;;4952125;29;20020;-81
2021/03/20 04:49:34;;;;;;;58.67;39.75;;;77.70;2227.20;;;;;;4951440;29;20028;-79
2021/03/20 04:52:23;;;;;;;64.22;39.67;;;102.40;2227.20;;;;;;4951484;29;20024;-81
2021/03/20 04:54:50;;;;;;;66.85;40.60;;;77.70;2227.20;;;;;;4971449;29;20047;-79
2021/03/20 04:57:22;;;;;;;62.83;40.65;;;102.60;2227.20;;;;;;4954351;29;20505;-79
2021/03/20 04:59:53;;;;;;;57.03;36.08;;;102.50;2227.20;;;;;;4954120;29;20031;-79
2021/03/20 05:02:54;;;;;;;57.78;37.30;;;77.70;2227.20;;;;;;4953730;29;20118;-81
2021/03/20 05:05:41;;;;;;;64.00;40.03;;;102.50;2227.20;;;;;;4951504;29;20059;-80
2021/03/20 05:08:13;;;;;;;52.90;34.45;;;102.40;2227.20;;;;;;4954430;29;20034;-80
2021/03/20 05:10:52;;;;;;;60.17;35.00;;;102.60;2227.20;;;;;;4955266;29;20039;-80
2021/03/20 05:13:34;;;;;;;54.42;37.33;;;102.70;2227.20;;;;;;4956023;29;20034;-79
2021/03/20 05:16:27;;;;;;;69.95;43.50;;;102.40;2227.20;;;;;;4972157;29;20023;-80
2021/03/20 05:18:53;;;;;;;60.75;41.30;;;77.70;2227.20;;;;;;4953198;29;20031;-79
2021/03/20 05:21:27;;;;;;;66.10;42.90;;;102.50;2227.20;;;;;;4954835;29;20153;-80
2021/03/20 05:23:54;;;;;;;55.83;40.38;;;102.40;2227.20;;;;;;4954922;29;20034;-79
2021/03/20 05:26:20;;;;;;;58.35;40.70;;;77.60;2227.20;;;;;;4954288;29;20097;-81
2021/03/20 05:28:46;;;;;;;61.25;41.75;;;102.60;2227.20;;;;;;4953771;29;20027;-78
2021/03/20 05:31:13;;;;;;;66.55;44.25;;;102.60;2227.20;;;;;;4954772;29;20031;-79
2021/03/20 05:33:41;;;;;;;62.17;41.65;;;77.70;2227.20;;;;;;4953891;29;20070;-80
2021/03/20 05:36:08;;;;;;;61.17;40.72;;;77.70;2227.20;;;;;;4953629;29;20098;-80
2021/03/20 05:38:35;;;;;;;58.10;38.95;;;102.40;2227.20;;;;;;4953793;29;20023;-79
2021/03/20 05:41:14;;;;;;;64.05;40.67;;;102.60;2227.20;;;;;;4953968;29;20086;-79
2021/03/20 05:44:15;;;;;;;61.38;40.95;;;102.70;2227.20;;;;;;4954089;29;20114;-78
2021/03/20 05:46:44;;;;;;;62.28;39.70;;;102.80;2227.20;;;;;;4954385;29;20068;-79
2021/03/20 05:49:31;;;;;;;67.30;43.58;;;102.90;2227.20;;;;;;4953657;29;20050;-79
2021/03/20 05:52:19;;;;;;;61.35;39.72;;;102.90;2227.20;;;;;;4954703;29;20019;-79
2021/03/20 05:55:19;;;;;;;74.18;47.50;;;102.60;2227.20;;;;;;4934704;29;20062;-79
2021/03/20 05:57:55;;;;;;;58.58;38.13;;;102.40;2227.20;;;;;;4919732;29;20036;-81
2021/03/20 06:00:32;;;;;;;53.03;37.97;;;102.50;2227.20;;;;;;4934336;29;20028;-79
2021/03/20 06:03:26;;;;;;;64.40;43.28;;;102.70;2227.20;;;;;;4933929;29;20053;-79
2021/03/20 06:06:04;;;;;;;75.15;47.63;;;102.80;2227.20;;;;;;4934615;29;20034;-79
2021/03/20 06:08:53;;;;;;;67.55;45.00;;;102.70;2227.20;;;;;;4934250;29;20028;-80
2021/03/20 06:11:39;;;;;;;73.38;50.25;;;102.70;2227.20;;;;;;4934403;29;20501;-79
2021/03/20 06:14:40;;;;;;;69.63;50.75;;;102.70;2227.20;;;;;;4934826;29;20020;-80
2021/03/20 06:17:22;;;;;;;65.70;44.78;;;102.80;2227.20;;;;;;4934234;29;20024;-79
2021/03/20 06:20:03;;;;;;;51.40;34.70;;;102.80;2227.20;;;;;;4934258;29;20032;-80
2021/03/20 06:22:39;;;;;;;43.72;32.28;;;102.90;2227.20;;;;;;4934083;29;20072;-80
2021/03/20 06:25:36;;;;;;;47.50;33.38;;;103.00;2227.20;;;;;;4932447;29;20099;-79
2021/03/20 06:28:02;;;;;;;52.70;35.38;;;103.10;2227.20;;;;;;4932013;29;20582;-80
2021/03/20 06:30:35;;;;;;;67.47;47.88;;;103.10;2227.20;;;;;;4933551;29;20031;-79
2021/03/20 06:33:29;;;;;;;60.60;40.85;;;103.20;2227.20;;;;;;4933120;29;20035;-79
2021/03/20 06:36:07;;;;;;;77.10;51.75;;;103.10;2227.20;;;;;;4928426;29;20032;-79
2021/03/20 06:38:56;;;;;;;87.00;53.80;;;103.30;2227.20;;;;;;4934883;29;20028;-80
2021/03/20 06:41:38;;;;;;;74.70;50.22;;;103.30;2227.20;;;;;;4934508;29;20024;-79
2021/03/20 06:44:35;;;;;;;83.22;51.92;;;103.30;2227.20;;;;;;4933077;29;20032;-80
2021/03/20 06:47:03;;;;;;;52.55;36.40;;;103.30;2227.20;;;;;;4933020;29;20032;-79
2021/03/20 06:49:32;;;;;;;52.25;34.35;;;103.10;2227.20;;;;;;4933429;29;20068;-80
2021/03/20 06:52:01;;;;;;;50.95;34.75;;;103.10;2227.20;;;;;;4932494;29;20032;-80
2021/03/20 06:54:28;;;;;;;50.58;35.88;;;103.10;2227.20;;;;;;4949836;29;20078;-79
2021/03/20 06:56:55;;;;;;;58.50;38.85;;;103.20;2227.20;;;;;;4951253;29;20028;-79
2021/03/20 06:59:23;;;;;;;58.08;42.22;;;103.20;2227.20;;;;;;4950540;29;20057;-80
2021/03/20 07:02:27;;;;;;;61.20;40.10;;;103.20;2227.20;;;;;;4950352;29;20034;-80
2021/03/20 07:05:01;;;;;;;56.08;35.83;;;128.00;2252.80;;;;;;4951607;29;20023;-79
2021/03/20 07:07:52;;;;;;;61.03;39.97;;;128.00;2252.80;;;;;;4952716;29;20366;-79
2021/03/20 07:10:28;;;;;;;57.78;36.38;;;103.30;2227.20;;;;;;4952928;29;20039;-80
2021/03/20 07:13:12;;;;;;;74.68;45.50;;;128.10;2252.80;;;;;;4952903;29;20031;-79
2021/03/20 07:15:39;;;;;;;75.05;46.10;;;128.10;2252.80;;;;;;4952856;29;20027;-79
2021/03/20 07:18:18;;;;;;;75.68;45.03;;;128.30;2252.80;;;;;;4953314;29;20567;-79
2021/03/20 07:20:46;;;;;;;62.50;37.40;;;128.40;2252.80;;;;;;4954143;29;20027;-79
2021/03/20 07:23:17;;;;;;;68.32;44.05;;;128.50;2252.80;;;;;;4952586;29;20540;-79
2021/03/20 07:25:50;;;;;;;79.43;50.70;;;128.10;2252.80;;;;;;4951325;29;20066;-78
2021/03/20 07:28:23;;;;;;;60.88;37.10;;;128.60;2252.80;;;;;;4951690;29;20028;-79
2021/03/20 07:31:11;;;;;;;75.85;46.65;;;128.70;2252.80;;;;;;4953321;29;20036;-79
2021/03/20 07:33:43;;;;;;;90.70;57.38;;;128.60;2252.80;;;;;;4952522;29;20035;-79
2021/03/20 07:36:27;;;;;;;88.75;54.10;;;128.50;2252.80;;;;;;4951344;29;20118;-79
2021/03/20 07:39:24;;;;;;;103.32;58.17;;;128.60;2252.80;;;;;;4951065;29;20027;-79
2021/03/20 07:41:53;;;;;;;80.60;53.83;;;128.70;2252.80;;;;;;4950752;29;20031;-79
2021/03/20 07:44:19;;;;;;;82.72;56.00;;;128.70;2252.80;;;;;;4952123;29;20059;-79
2021/03/20 07:46:45;;;;;;;58.80;41.00;;;128.70;2252.80;;;;;;4951844;29;20059;-80
2021/03/20 07:49:23;;;;;;;54.60;33.28;;;128.80;2252.80;;;;;;4951901;29;20090;-79
2021/03/20 07:51:56;;;;;;;51.85;33.35;;;128.80;2252.80;;;;;;4953128;29;20026;-79
2021/03/20 07:54:30;;;;;;;74.22;43.67;;;128.80;2252.80;;;;;;4952808;29;20063;-79
2021/03/20 07:57:08;;;;;;;46.85;36.53;;;128.80;2252.80;;;;;;4951830;29;20478;-79
2021/03/20 07:59:40;;;;;;;61.10;37.20;;;128.70;2252.80;;;;;;4950376;29;20064;-78
2021/03/20 08:02:11;;;;;;;55.58;35.67;;;128.90;2252.80;;;;;;4952191;29;20027;-78
2021/03/20 08:04:51;;;;;;;66.13;39.17;;;153.60;2252.80;;;;;;4951740;29;20032;-79
2021/03/20 08:07:35;;;;;;;53.25;35.47;;;153.80;2252.80;;;;;;4953248;29;20122;-79
2021/03/20 08:10:28;;;;;;;55.25;38.80;;;153.90;2252.80;;;;;;4937608;29;20735;-79
2021/03/20 08:12:55;;;;;;;61.60;46.10;;;153.90;2252.80;;;;;;4952511;29;20036;-79
2021/03/20 08:15:26;;;;;;;62.35;45.40;;;154.00;2252.80;;;;;;4953739;29;20047;-79
2021/03/20 08:17:54;;;;;;;53.35;34.83;;;154.00;2252.80;;;;;;4953708;29;20012;-79
2021/03/20 08:20:20;;;;;;;48.72;31.50;;;154.00;2252.80;;;;;;4951700;29;20032;-79
2021/03/20 08:23:16;;;;;;;49.38;31.55;;;153.90;2252.80;;;;;;4952207;29;20095;-78
2021/03/20 08:25:54;;;;;;;39.08;29.08;;;154.00;2252.80;;;;;;4951949;29;20056;-78
2021/03/20 08:28:50;;;;;;;54.97;38.20;;;154.00;2252.80;;;;;;4952812;29;20050;-79
2021/03/20 08:31:52;;;;;;;40.10;28.88;;;154.00;2252.80;;;;;;4954161;29;20042;-80
2021/03/20 08:34:46;;;;;;;54.83;37.17;;;154.00;2252.80;;;;;;4937237;29;20031;-80
2021/03/20 08:37:41;;;;;;;46.92;31.58;;;154.10;2252.80;;;;;;4934893;29;20019;-79
2021/03/20 08:40:38;;;;;;;41.97;28.52;;;154.20;2252.80;;;;;;4952711;29;20023;-79
2021/03/20 08:43:32;;;;;;;34.60;24.38;;;154.40;2252.80;;;;;;4953818;29;20030;-79
2021/03/20 08:46:04;;;;;;;36.67;25.88;;;154.30;2252.80;;;;;;4955680;29;20034;-82
2021/03/20 08:48:38;;;;;;;34.38;24.42;;;154.30;2252.80;;;;;;4939785;29;20059;-79
2021/03/20 08:51:26;;;;;;;41.28;29.58;;;154.10;2252.80;;;;;;4956191;29;20036;-78
2021/03/20 08:54:00;;;;;;;38.88;26.95;;;154.20;2252.80;;;;;;4948562;29;20042;-80
2021/03/20 08:56:55;;;;;;;38.78;25.98;;;154.30;2252.80;;;;;;4972843;29;20079;-78
2021/03/20 08:59:46;;;;;;;29.85;23.10;;;154.10;2252.80;;;;;;4956285;29;20482;-78
2021/03/20 09:02:35;;;;;;;55.65;34.20;;;154.40;2252.80;;;;;;4955030;29;20107;-78
2021/03/20 09:05:42;;;;;;;55.25;38.22;;;179.30;2252.80;;;;;;4950555;29;20516;-82
2021/03/20 09:09:23;;;;;;;33.97;23.83;;;179.40;2252.80;;;;;;4908110;29;20041;-81
2021/03/20 09:29:50;;;;;;;30.13;22.80;;;180.10;1996.80;;;;;;4808543;29;20054;-84
2021/03/20 09:32:49;;;;;;;23.25;17.27;;;204.80;1971.20;;;;;;4799031;29;20502;-83
2021/03/20 09:36:28;;;;;;;27.45;20.38;;;204.80;1971.20;;;;;;4805559;29;20467;-84
2021/03/20 09:39:03;;;;;;;28.15;21.35;;;204.80;1945.60;;;;;;4753790;29;20419;-82
2021/03/20 09:41:39;;;;;;;30.73;21.17;;;204.80;1894.40;;;;;;4787199;29;20047;-82
2021/03/20 09:44:21;;;;;;;27.10;18.48;;;204.90;1920.00;;;;;;4801573;29;20042;-79
2021/03/20 09:46:50;;;;;;;37.45;24.92;;;205.00;1996.80;;;;;;4851389;29;20037;-79
2021/03/20 09:49:16;;;;;;;39.80;28.00;;;205.10;1971.20;;;;;;4893539;29;20054;-78
2021/03/20 09:51:54;;;;;;;33.97;22.67;;;205.10;1971.20;;;;;;4898601;29;20040;-81
2021/03/20 09:54:29;;;;;;;40.25;28.63;;;205.20;1920.00;;;;;;4912326;29;20522;-77
2021/03/20 09:57:05;;;;;;;38.35;26.52;;;205.20;1971.20;;;;;;4898676;29;20494;-79
2021/03/20 09:59:32;;;;;;;59.00;38.95;;;205.20;1920.00;;;;;;4897804;29;20390;-81
2021/03/20 10:02:11;;;;;;;48.45;31.02;;;205.30;1894.40;;;;;;4900004;29;20032;-79
2021/03/20 10:04:57;;;;;;;81.10;46.90;;;205.30;1894.40;;;;;;4899830;29;20028;-79
2021/03/20 10:07:23;;;;;;;82.35;54.53;;;205.40;1843.20;;;;;;4884381;29;20032;-80
2021/03/20 10:10:10;;;;;;;55.50;34.30;;;205.40;1868.80;;;;;;4899740;29;20050;-83
2021/03/20 10:12:46;;;;;;;31.52;24.38;;;205.50;1868.80;;;;;;4899604;29;20031;-80
2021/03/20 10:15:14;;;;;;;47.90;30.23;;;205.50;1817.60;;;;;;4900072;29;20028;-78
2021/03/20 10:18:11;;;;;;;41.00;30.90;;;205.60;1868.80;;;;;;4915810;29;20035;-79
2021/03/20 10:20:56;;;;;;;31.10;22.27;;;205.70;1868.80;;;;;;4935184;29;20525;-79
2021/03/20 10:23:42;;;;;;;24.90;18.50;;;205.70;1868.80;;;;;;4936198;29;20455;-82
2021/03/20 10:26:42;;;;;;;28.52;22.88;;;205.70;1766.40;;;;;;4935212;29;20036;-80
2021/03/20 10:29:30;;;;;;;30.15;21.00;;;205.70;1843.20;;;;;;4935036;29;20068;-80
2021/03/20 10:32:16;;;;;;;33.60;24.52;;;205.70;1715.20;;;;;;4935007;29;20034;-78
2021/03/20 10:34:46;;;;;;;40.10;24.40;;;205.70;1715.20;;;;;;4935320;29;20465;-79
2021/03/20 10:37:14;;;;;;;35.78;23.00;;;205.70;1715.20;;;;;;4935129;29;20031;-82
2021/03/20 10:39:45;;;;;;;27.10;19.50;;;205.70;1689.60;;;;;;4935258;29;20035;-78
2021/03/20 10:42:33;;;;;;;23.30;18.50;;;205.70;1638.40;;;;;;4934946;29;20054;-78
2021/03/20 10:45:01;;;;;;;23.58;17.65;;;230.40;1664.00;;;;;;4935970;29;20471;-80
2021/03/20 10:47:34;;;;;;;26.67;19.60;;;230.40;1689.60;;;;;;4934821;29;20035;-80
2021/03/20 10:50:18;;;;;;;24.88;17.50;;;230.40;1689.60;;;;;;4935239;29;20126;-78
2021/03/20 10:52:44;;;;;;;35.95;20.38;;;230.40;1689.60;;;;;;4934167;29;20035;-80
2021/03/20 10:55:26;;;;;;;35.35;25.00;;;230.40;1740.80;;;;;;4935430;29;20028;-80
2021/03/20 10:57:53;;;;;;;37.55;27.88;;;230.40;1715.20;;;;;;4931612;29;20162;-79
2021/03/20 11:00:29;;;;;;;44.13;30.15;;;230.40;1664.00;;;;;;4934759;29;20032;-79
2021/03/20 11:03:26;;;;;;;35.30;26.80;;;230.50;1638.40;;;;;;4934557;29;20042;-81
2021/03/20 11:05:52;;;;;;;31.17;22.60;;;230.50;1664.00;;;;;;4930870;29;20075;-82
2021/03/20 11:08:21;;;;;;;58.92;39.95;;;230.50;1612.80;;;;;;4935334;29;20047;-77
2021/03/20 11:10:53;;;;;;;40.28;27.48;;;230.40;1612.80;;;;;;4935683;29;20370;-77
2021/03/20 11:13:30;;;;;;;43.10;26.70;;;205.70;1638.40;;;;;;4934907;29;20031;-82
2021/03/20 11:16:08;;;;;;;35.45;25.35;;;205.70;1612.80;;;;;;4935114;29;20493;-82
2021/03/20 11:18:59;;;;;;;50.83;32.70;;;230.40;1689.60;;;;;;4935434;29;20031;-78
2021/03/20 11:21:29;;;;;;;47.72;34.17;;;230.40;1587.20;;;;;;4934289;29;20032;-79
2021/03/20 11:24:00;;;;;;;40.80;27.20;;;230.40;1612.80;;;;;;4934407;29;20024;-80
2021/03/20 11:26:35;;;;;;;37.15;27.35;;;230.50;1587.20;;;;;;4934732;29;20030;-84
2021/03/20 11:29:10;;;;;;;62.20;41.20;;;230.50;1638.40;;;;;;4939647;29;20038;-84
2021/03/20 11:36:18;;;;;;;60.15;37.80;;;230.50;1664.00;;;;;;4928441;29;20072;-87
2021/03/20 11:39:30;;;;;;;155.65;102.70;;;230.40;1612.80;;;;;;4941261;29;20031;-86
2021/03/20 11:52:24;;;;;;;30.48;23.02;;;205.60;1689.60;;;;;;4959953;29;20561;-83
2021/03/20 11:55:06;;;;;;;31.90;24.27;;;205.70;1740.80;;;;;;4941219;29;20501;-84
2021/03/20 11:57:38;;;;;;;32.63;22.85;;;205.60;1766.40;;;;;;4940775;29;20027;-80
2021/03/20 12:00:29;;;;;;;41.42;28.20;;;205.50;1766.40;;;;;;4919781;29;20047;-84
2021/03/20 12:02:55;;;;;;;38.78;26.20;;;205.50;1766.40;;;;;;4907067;29;20040;-84
2021/03/20 12:05:28;;;;;;;40.95;27.48;;;205.50;1817.60;;;;;;4900697;29;20076;-84
2021/03/20 12:08:12;;;;;;;;;;;205.40;1766.40;;;;;;4901003;29;20393;-84
2021/03/20 12:10:52;;;;;;;33.17;22.17;;;205.30;1792.00;;;;;;4901012;29;20458;-84
2021/03/20 12:13:45;;;;;;;38.92;28.70;;;205.30;1817.60;;;;;;4917969;29;20091;-85
2021/03/20 12:16:31;;;;;;;29.10;21.58;;;205.30;1868.80;;;;;;4901917;29;20424;-85
2021/03/20 12:19:21;;;;;;;47.88;32.13;;;205.20;1792.00;;;;;;4902415;29;20032;-84
2021/03/20 12:21:56;;;;;;;43.40;30.02;;;205.20;1894.40;;;;;;4908440;29;20385;-79
2021/03/20 12:45:28;;;;;;;41.47;28.50;;;205.10;1843.20;;;;;;4951794;29;20043;-81
2021/03/20 12:52:30;;;;;;;29.67;21.75;;;205.10;1920.00;;;;;;4891413;29;20065;-82
2021/03/20 12:59:39;;;;;;;41.08;28.02;;;205.00;1945.60;;;;;;4870606;29;20082;-83
2021/03/20 13:03:04;;;;;;;49.42;34.13;;;204.90;2022.40;;;;;;4855484;29;20080;-81
2021/03/20 13:09:12;;;;;;;59.20;37.85;;;180.00;2252.80;;;;;;4854055;29;20037;-77
2021/03/20 13:11:47;;;;;;;53.95;37.75;;;179.80;2252.80;;;;;;4833077;29;20026;-80
2021/03/20 13:14:16;;;;;;;44.88;30.20;;;179.70;2252.80;;;;;;4850031;29;20062;-80
2021/03/20 13:16:56;;;;;;;103.03;49.80;;;179.80;2252.80;;;;;;4846914;29;20040;-80
2021/03/20 13:19:27;;;;;;;107.57;53.85;;;179.70;2252.80;;;;;;4866363;29;20095;-80
2021/03/20 13:22:09;;;;;;;64.57;38.50;;;179.60;2252.80;;;;;;4905698;29;20121;-80
2021/03/20 13:24:37;;;;;;;147.88;80.45;;;179.50;2252.80;;;;;;4931991;29;20047;-79
2021/03/20 13:27:03;;;;;;;83.68;51.50;;;204.90;2252.80;;;;;;4915464;29;20107;-79
2021/03/20 13:29:32;;;;;;;75.45;49.65;;;179.50;2252.80;;;;;;4933611;29;20060;-80
2021/03/20 13:31:58;;;;;;;52.40;38.05;;;179.40;2252.80;;;;;;4915511;29;20530;-80
2021/03/20 13:34:24;;;;;;;53.90;37.60;;;179.40;2252.80;;;;;;4916962;29;20063;-79
2021/03/20 13:36:52;;;;;;;48.50;36.25;;;179.40;2252.80;;;;;;4936757;29;20031;-80
2021/03/20 13:39:19;;;;;;;68.95;44.58;;;179.40;2252.80;;;;;;4946162;29;20032;-80
2021/03/20 13:41:44;;;;;;;51.50;37.15;;;179.50;2252.80;;;;;;4943551;29;20430;-79
2021/03/20 13:44:20;;;;;;;66.50;44.90;;;179.40;2252.80;;;;;;4947339;29;20042;-79
2021/03/20 13:46:47;;;;;;;76.90;50.25;;;179.40;2252.80;;;;;;4948251;29;20035;-78
2021/03/20 13:49:13;;;;;;;77.63;51.42;;;179.50;2252.80;;;;;;4944452;29;20051;-79
2021/03/20 13:51:43;;;;;;;60.50;44.38;;;179.30;2252.80;;;;;;4943569;29;20027;-82
2021/03/20 13:54:18;;;;;;;53.63;35.80;;;179.30;2252.80;;;;;;4947072;29;20043;-80
2021/03/20 13:56:44;;;;;;;121.60;86.70;;;179.20;2252.80;;;;;;4952506;29;20038;-81
2021/03/20 13:59:11;;;;;;;52.38;36.88;;;179.20;2252.80;;;;;;4948733;29;20417;-79